sensor_id;sensor_type;location;lat;lon;timestamp;P1;durP1;ratioP1;P2;durP2;ratioP2
13014;SDS011;6573;57.696;11.950;2022-12-16T00:01:51;16.35;;;10.55;;
13014;SDS011;6573;57.696;11.950;2022-12-16T00:04:20;16.67;;;10.43;;
13014;SDS011;6573;57.696;11.950;2022-12-16T00:06:48;15.82;;;10.32;;
13014;SDS011;6573;57.696;11.950;2022-12-16T00:09:17;15.70;;;11.13;;
13014;SDS011;6573;57.696;11.950;2022-12-16T00:11:47;15.23;;;10.02;;
13014;SDS011;6573;57.696;11.950;2022-12-16T00:14:17;16.35;;;9.70;;
13014;SDS011;6573;57.696;11.950;2022-12-16T00:16:45;16.48;;;9.40;;
13014;SDS011;6573;57.696;11.950;2022-12-16T00:19:13;16.70;;;9.93;;
13014;SDS011;6573;57.696;11.950;2022-12-16T00:21:41;14.73;;;10.13;;
13014;SDS011;6573;57.696;11.950;2022-12-16T00:24:10;15.40;;;10.27;;
13014;SDS011;6573;57.696;11.950;2022-12-16T00:26:38;17.25;;;11.27;;
13014;SDS011;6573;57.696;11.950;2022-12-16T00:29:08;19.27;;;10.50;;
13014;SDS011;6573;57.696;11.950;2022-12-16T00:31:37;19.23;;;10.80;;
13014;SDS011;6573;57.696;11.950;2022-12-16T00:34:05;19.75;;;10.95;;
13014;SDS011;6573;57.696;11.950;2022-12-16T00:36:34;16.98;;;11.15;;
13014;SDS011;6573;57.696;11.950;2022-12-16T00:39:02;19.60;;;11.02;;
13014;SDS011;6573;57.696;11.950;2022-12-16T00:41:30;21.92;;;11.23;;
13014;SDS011;6573;57.696;11.950;2022-12-16T00:43:59;17.33;;;10.93;;
13014;SDS011;6573;57.696;11.950;2022-12-16T00:46:29;16.35;;;10.32;;
13014;SDS011;6573;57.696;11.950;2022-12-16T00:48:57;18.35;;;10.95;;
13014;SDS011;6573;57.696;11.950;2022-12-16T00:51:25;14.52;;;10.90;;
13014;SDS011;6573;57.696;11.950;2022-12-16T00:53:54;15.45;;;10.02;;
13014;SDS011;6573;57.696;11.950;2022-12-16T00:56:22;18.83;;;10.38;;
13014;SDS011;6573;57.696;11.950;2022-12-16T00:58:50;15.20;;;9.70;;
13014;SDS011;6573;57.696;11.950;2022-12-16T01:01:20;12.32;;;8.88;;
13014;SDS011;6573;57.696;11.950;2022-12-16T01:03:50;14.73;;;9.27;;
13014;SDS011;6573;57.696;11.950;2022-12-16T01:06:20;12.93;;;8.60;;
13014;SDS011;6573;57.696;11.950;2022-12-16T01:08:48;14.10;;;8.52;;
13014;SDS011;6573;57.696;11.950;2022-12-16T01:11:17;13.05;;;9.32;;
13014;SDS011;6573;57.696;11.950;2022-12-16T01:13:48;15.23;;;8.73;;
13014;SDS011;6573;57.696;11.950;2022-12-16T01:16:20;13.05;;;8.13;;
13014;SDS011;6573;57.696;11.950;2022-12-16T01:18:51;13.60;;;8.20;;
13014;SDS011;6573;57.696;11.950;2022-12-16T01:21:21;12.55;;;8.13;;
13014;SDS011;6573;57.696;11.950;2022-12-16T01:23:49;13.13;;;7.45;;
13014;SDS011;6573;57.696;11.950;2022-12-16T01:26:20;13.73;;;8.02;;
13014;SDS011;6573;57.696;11.950;2022-12-16T01:28:49;10.93;;;8.48;;
13014;SDS011;6573;57.696;11.950;2022-12-16T01:31:17;14.77;;;8.30;;
13014;SDS011;6573;57.696;11.950;2022-12-16T01:33:47;11.95;;;7.53;;
13014;SDS011;6573;57.696;11.950;2022-12-16T01:36:18;12.90;;;7.75;;
13014;SDS011;6573;57.696;11.950;2022-12-16T01:38:47;12.63;;;8.15;;
13014;SDS011;6573;57.696;11.950;2022-12-16T01:41:17;12.50;;;7.78;;
13014;SDS011;6573;57.696;11.950;2022-12-16T01:43:46;10.90;;;7.60;;
13014;SDS011;6573;57.696;11.950;2022-12-16T01:46:15;12.00;;;8.68;;
13014;SDS011;6573;57.696;11.950;2022-12-16T01:48:49;10.90;;;7.45;;
13014;SDS011;6573;57.696;11.950;2022-12-16T01:51:25;14.30;;;8.68;;
13014;SDS011;6573;57.696;11.950;2022-12-16T01:53:58;13.15;;;7.93;;
13014;SDS011;6573;57.696;11.950;2022-12-16T01:56:30;12.20;;;8.27;;
13014;SDS011;6573;57.696;11.950;2022-12-16T01:59:01;12.90;;;8.60;;
13014;SDS011;6573;57.696;11.950;2022-12-16T02:01:30;13.40;;;8.68;;
13014;SDS011;6573;57.696;11.950;2022-12-16T02:03:59;12.90;;;7.85;;
13014;SDS011;6573;57.696;11.950;2022-12-16T02:06:31;10.82;;;7.95;;
13014;SDS011;6573;57.696;11.950;2022-12-16T02:09:02;12.10;;;8.35;;
13014;SDS011;6573;57.696;11.950;2022-12-16T02:11:38;12.88;;;7.95;;
13014;SDS011;6573;57.696;11.950;2022-12-16T02:14:35;11.18;;;7.25;;
13014;SDS011;6573;57.696;11.950;2022-12-16T02:17:25;8.73;;;5.82;;
13014;SDS011;6573;57.696;11.950;2022-12-16T02:23:19;7.35;;;5.43;;
13014;SDS011;6573;57.696;11.950;2022-12-16T02:26:18;6.75;;;5.57;;
13014;SDS011;6573;57.696;11.950;2022-12-16T02:29:18;10.23;;;6.47;;
13014;SDS011;6573;57.696;11.950;2022-12-16T02:32:06;10.73;;;7.13;;
13014;SDS011;6573;57.696;11.950;2022-12-16T02:34:43;10.73;;;6.50;;
13014;SDS011;6573;57.696;11.950;2022-12-16T02:37:17;9.57;;;6.22;;
13014;SDS011;6573;57.696;11.950;2022-12-16T02:39:58;7.63;;;5.22;;
13014;SDS011;6573;57.696;11.950;2022-12-16T02:42:29;6.50;;;4.82;;
13014;SDS011;6573;57.696;11.950;2022-12-16T02:44:59;8.65;;;5.78;;
13014;SDS011;6573;57.696;11.950;2022-12-16T02:47:32;9.38;;;6.15;;
13014;SDS011;6573;57.696;11.950;2022-12-16T02:50:01;9.05;;;6.35;;
13014;SDS011;6573;57.696;11.950;2022-12-16T02:52:30;7.70;;;5.50;;
13014;SDS011;6573;57.696;11.950;2022-12-16T02:55:03;8.73;;;6.25;;
13014;SDS011;6573;57.696;11.950;2022-12-16T02:57:41;7.72;;;6.18;;
13014;SDS011;6573;57.696;11.950;2022-12-16T03:00:22;10.30;;;7.47;;
13014;SDS011;6573;57.696;11.950;2022-12-16T03:02:55;10.20;;;6.97;;
13014;SDS011;6573;57.696;11.950;2022-12-16T03:05:29;8.02;;;5.88;;
13014;SDS011;6573;57.696;11.950;2022-12-16T03:08:01;9.98;;;6.50;;
13014;SDS011;6573;57.696;11.950;2022-12-16T03:10:33;8.88;;;5.85;;
13014;SDS011;6573;57.696;11.950;2022-12-16T03:13:06;10.55;;;6.45;;
13014;SDS011;6573;57.696;11.950;2022-12-16T03:15:37;9.82;;;7.15;;
13014;SDS011;6573;57.696;11.950;2022-12-16T03:18:09;9.88;;;6.70;;
13014;SDS011;6573;57.696;11.950;2022-12-16T03:20:42;10.48;;;7.20;;
13014;SDS011;6573;57.696;11.950;2022-12-16T03:23:17;11.35;;;7.65;;
13014;SDS011;6573;57.696;11.950;2022-12-16T03:25:49;10.48;;;6.78;;
13014;SDS011;6573;57.696;11.950;2022-12-16T03:28:27;12.68;;;7.85;;
13014;SDS011;6573;57.696;11.950;2022-12-16T03:31:04;12.95;;;8.18;;
13014;SDS011;6573;57.696;11.950;2022-12-16T03:33:44;10.77;;;7.40;;
13014;SDS011;6573;57.696;11.950;2022-12-16T03:36:18;12.57;;;8.20;;
13014;SDS011;6573;57.696;11.950;2022-12-16T03:38:49;10.00;;;6.65;;
13014;SDS011;6573;57.696;11.950;2022-12-16T03:41:18;10.07;;;6.53;;
13014;SDS011;6573;57.696;11.950;2022-12-16T03:43:49;12.85;;;8.40;;
13014;SDS011;6573;57.696;11.950;2022-12-16T03:46:19;14.48;;;7.97;;
13014;SDS011;6573;57.696;11.950;2022-12-16T03:48:50;10.88;;;7.55;;
13014;SDS011;6573;57.696;11.950;2022-12-16T03:51:18;12.38;;;7.43;;
13014;SDS011;6573;57.696;11.950;2022-12-16T03:53:47;11.80;;;7.78;;
13014;SDS011;6573;57.696;11.950;2022-12-16T03:56:15;12.25;;;7.80;;
13014;SDS011;6573;57.696;11.950;2022-12-16T03:58:44;13.73;;;8.43;;
13014;SDS011;6573;57.696;11.950;2022-12-16T04:01:12;12.68;;;8.15;;
13014;SDS011;6573;57.696;11.950;2022-12-16T04:03:41;11.88;;;7.38;;
13014;SDS011;6573;57.696;11.950;2022-12-16T04:06:11;16.05;;;8.15;;
13014;SDS011;6573;57.696;11.950;2022-12-16T04:08:44;11.73;;;6.78;;
13014;SDS011;6573;57.696;11.950;2022-12-16T04:11:13;13.60;;;6.88;;
13014;SDS011;6573;57.696;11.950;2022-12-16T04:13:59;9.60;;;6.13;;
13014;SDS011;6573;57.696;11.950;2022-12-16T04:16:45;11.73;;;6.85;;
13014;SDS011;6573;57.696;11.950;2022-12-16T04:19:32;9.30;;;5.70;;
13014;SDS011;6573;57.696;11.950;2022-12-16T04:22:23;9.98;;;6.15;;
13014;SDS011;6573;57.696;11.950;2022-12-16T04:25:11;8.05;;;5.32;;
13014;SDS011;6573;57.696;11.950;2022-12-16T04:27:43;9.32;;;6.18;;
13014;SDS011;6573;57.696;11.950;2022-12-16T04:30:12;9.48;;;5.72;;
13014;SDS011;6573;57.696;11.950;2022-12-16T04:32:49;7.20;;;5.35;;
13014;SDS011;6573;57.696;11.950;2022-12-16T04:35:37;9.75;;;5.18;;
13014;SDS011;6573;57.696;11.950;2022-12-16T04:38:25;8.43;;;5.75;;
13014;SDS011;6573;57.696;11.950;2022-12-16T04:41:11;11.93;;;6.20;;
13014;SDS011;6573;57.696;11.950;2022-12-16T04:43:56;7.38;;;5.43;;
13014;SDS011;6573;57.696;11.950;2022-12-16T04:46:43;11.93;;;7.13;;
13014;SDS011;6573;57.696;11.950;2022-12-16T04:49:29;11.57;;;6.82;;
13014;SDS011;6573;57.696;11.950;2022-12-16T04:52:20;9.82;;;6.60;;
13014;SDS011;6573;57.696;11.950;2022-12-16T04:55:07;9.27;;;6.32;;
13014;SDS011;6573;57.696;11.950;2022-12-16T04:57:54;9.90;;;6.68;;
13014;SDS011;6573;57.696;11.950;2022-12-16T05:00:41;9.13;;;5.13;;
13014;SDS011;6573;57.696;11.950;2022-12-16T05:03:28;8.35;;;5.38;;
13014;SDS011;6573;57.696;11.950;2022-12-16T05:06:14;8.10;;;4.85;;
13014;SDS011;6573;57.696;11.950;2022-12-16T05:09:01;7.05;;;4.80;;
13014;SDS011;6573;57.696;11.950;2022-12-16T05:11:49;8.57;;;5.25;;
13014;SDS011;6573;57.696;11.950;2022-12-16T05:14:49;8.18;;;5.13;;
13014;SDS011;6573;57.696;11.950;2022-12-16T05:17:35;8.38;;;5.38;;
13014;SDS011;6573;57.696;11.950;2022-12-16T05:20:20;7.38;;;5.25;;
13014;SDS011;6573;57.696;11.950;2022-12-16T05:23:06;7.95;;;5.80;;
13014;SDS011;6573;57.696;11.950;2022-12-16T05:25:52;9.45;;;5.30;;
13014;SDS011;6573;57.696;11.950;2022-12-16T05:28:39;15.23;;;6.45;;
13014;SDS011;6573;57.696;11.950;2022-12-16T05:31:25;12.95;;;6.43;;
13014;SDS011;6573;57.696;11.950;2022-12-16T05:34:11;11.35;;;6.20;;
13014;SDS011;6573;57.696;11.950;2022-12-16T05:37:08;13.98;;;5.97;;
13014;SDS011;6573;57.696;11.950;2022-12-16T05:39:54;12.50;;;6.60;;
13014;SDS011;6573;57.696;11.950;2022-12-16T05:42:41;13.73;;;6.50;;
13014;SDS011;6573;57.696;11.950;2022-12-16T05:45:30;12.43;;;6.55;;
13014;SDS011;6573;57.696;11.950;2022-12-16T05:48:16;13.35;;;6.47;;
13014;SDS011;6573;57.696;11.950;2022-12-16T05:51:01;10.98;;;6.20;;
13014;SDS011;6573;57.696;11.950;2022-12-16T05:53:47;9.95;;;5.80;;
13014;SDS011;6573;57.696;11.950;2022-12-16T05:56:32;10.43;;;6.63;;
13014;SDS011;6573;57.696;11.950;2022-12-16T05:59:19;9.27;;;6.50;;
13014;SDS011;6573;57.696;11.950;2022-12-16T06:02:05;11.18;;;6.47;;
13014;SDS011;6573;57.696;11.950;2022-12-16T06:04:51;9.25;;;6.20;;
13014;SDS011;6573;57.696;11.950;2022-12-16T06:07:37;9.40;;;6.07;;
13014;SDS011;6573;57.696;11.950;2022-12-16T06:10:23;9.10;;;6.13;;
13014;SDS011;6573;57.696;11.950;2022-12-16T06:13:09;13.82;;;6.93;;
13014;SDS011;6573;57.696;11.950;2022-12-16T06:15:55;13.10;;;7.82;;
13014;SDS011;6573;57.696;11.950;2022-12-16T06:18:42;13.18;;;7.10;;
13014;SDS011;6573;57.696;11.950;2022-12-16T06:21:28;14.23;;;8.65;;
13014;SDS011;6573;57.696;11.950;2022-12-16T06:24:14;11.50;;;6.95;;
13014;SDS011;6573;57.696;11.950;2022-12-16T06:27:00;13.35;;;8.93;;
13014;SDS011;6573;57.696;11.950;2022-12-16T06:29:45;10.10;;;7.00;;
13014;SDS011;6573;57.696;11.950;2022-12-16T06:32:31;10.98;;;6.28;;
13014;SDS011;6573;57.696;11.950;2022-12-16T06:35:20;10.85;;;7.30;;
13014;SDS011;6573;57.696;11.950;2022-12-16T06:38:06;12.05;;;6.93;;
13014;SDS011;6573;57.696;11.950;2022-12-16T06:40:51;13.90;;;7.22;;
13014;SDS011;6573;57.696;11.950;2022-12-16T06:43:37;15.93;;;7.07;;
13014;SDS011;6573;57.696;11.950;2022-12-16T06:46:23;12.07;;;7.80;;
13014;SDS011;6573;57.696;11.950;2022-12-16T06:49:09;12.70;;;6.80;;
13014;SDS011;6573;57.696;11.950;2022-12-16T06:51:56;12.05;;;6.68;;
13014;SDS011;6573;57.696;11.950;2022-12-16T06:54:42;11.93;;;6.18;;
13014;SDS011;6573;57.696;11.950;2022-12-16T06:57:28;11.65;;;6.82;;
13014;SDS011;6573;57.696;11.950;2022-12-16T07:00:14;11.45;;;6.63;;
13014;SDS011;6573;57.696;11.950;2022-12-16T07:03:00;11.13;;;6.88;;
13014;SDS011;6573;57.696;11.950;2022-12-16T07:05:45;9.82;;;6.70;;
13014;SDS011;6573;57.696;11.950;2022-12-16T07:08:32;10.60;;;6.05;;
13014;SDS011;6573;57.696;11.950;2022-12-16T07:11:18;11.00;;;6.43;;
13014;SDS011;6573;57.696;11.950;2022-12-16T07:14:15;12.38;;;6.25;;
13014;SDS011;6573;57.696;11.950;2022-12-16T07:17:01;20.90;;;12.80;;
13014;SDS011;6573;57.696;11.950;2022-12-16T07:19:47;14.52;;;7.47;;
13014;SDS011;6573;57.696;11.950;2022-12-16T07:22:34;12.23;;;6.70;;
13014;SDS011;6573;57.696;11.950;2022-12-16T07:25:36;10.95;;;6.90;;
13014;SDS011;6573;57.696;11.950;2022-12-16T07:28:23;11.37;;;7.30;;
13014;SDS011;6573;57.696;11.950;2022-12-16T07:31:08;9.50;;;6.70;;
13014;SDS011;6573;57.696;11.950;2022-12-16T07:33:54;9.05;;;5.97;;
13014;SDS011;6573;57.696;11.950;2022-12-16T07:36:40;10.55;;;6.07;;
13014;SDS011;6573;57.696;11.950;2022-12-16T07:39:26;12.85;;;6.35;;
13014;SDS011;6573;57.696;11.950;2022-12-16T07:42:22;11.68;;;6.47;;
13014;SDS011;6573;57.696;11.950;2022-12-16T07:45:08;11.25;;;6.35;;
13014;SDS011;6573;57.696;11.950;2022-12-16T07:47:55;12.60;;;6.28;;
13014;SDS011;6573;57.696;11.950;2022-12-16T07:50:49;11.05;;;6.03;;
13014;SDS011;6573;57.696;11.950;2022-12-16T07:53:35;10.27;;;6.60;;
13014;SDS011;6573;57.696;11.950;2022-12-16T07:56:21;9.65;;;6.10;;
13014;SDS011;6573;57.696;11.950;2022-12-16T07:59:08;13.30;;;6.53;;
13014;SDS011;6573;57.696;11.950;2022-12-16T08:01:54;11.32;;;6.55;;
13014;SDS011;6573;57.696;11.950;2022-12-16T08:04:40;11.98;;;7.32;;
13014;SDS011;6573;57.696;11.950;2022-12-16T08:07:26;11.82;;;6.85;;
13014;SDS011;6573;57.696;11.950;2022-12-16T08:10:11;16.25;;;7.13;;
13014;SDS011;6573;57.696;11.950;2022-12-16T08:13:00;11.00;;;6.47;;
13014;SDS011;6573;57.696;11.950;2022-12-16T08:15:52;12.47;;;6.77;;
13014;SDS011;6573;57.696;11.950;2022-12-16T08:18:38;14.07;;;7.57;;
13014;SDS011;6573;57.696;11.950;2022-12-16T08:21:24;12.52;;;6.72;;
13014;SDS011;6573;57.696;11.950;2022-12-16T08:24:10;15.50;;;7.40;;
13014;SDS011;6573;57.696;11.950;2022-12-16T08:26:55;13.25;;;9.13;;
13014;SDS011;6573;57.696;11.950;2022-12-16T08:29:41;9.93;;;6.90;;
13014;SDS011;6573;57.696;11.950;2022-12-16T08:32:28;10.20;;;6.68;;
13014;SDS011;6573;57.696;11.950;2022-12-16T08:35:18;9.48;;;6.22;;
13014;SDS011;6573;57.696;11.950;2022-12-16T08:38:04;13.88;;;6.93;;
13014;SDS011;6573;57.696;11.950;2022-12-16T08:40:53;11.60;;;6.40;;
13014;SDS011;6573;57.696;11.950;2022-12-16T08:43:39;10.80;;;6.53;;
13014;SDS011;6573;57.696;11.950;2022-12-16T08:46:24;7.97;;;6.15;;
13014;SDS011;6573;57.696;11.950;2022-12-16T08:49:12;13.57;;;7.45;;
13014;SDS011;6573;57.696;11.950;2022-12-16T08:51:58;11.40;;;7.28;;
13014;SDS011;6573;57.696;11.950;2022-12-16T08:54:43;11.20;;;6.55;;
13014;SDS011;6573;57.696;11.950;2022-12-16T08:57:29;10.88;;;6.68;;
13014;SDS011;6573;57.696;11.950;2022-12-16T09:00:15;10.63;;;6.57;;
13014;SDS011;6573;57.696;11.950;2022-12-16T09:03:01;10.35;;;6.60;;
13014;SDS011;6573;57.696;11.950;2022-12-16T09:05:49;9.85;;;6.82;;
13014;SDS011;6573;57.696;11.950;2022-12-16T09:08:35;13.17;;;7.50;;
13014;SDS011;6573;57.696;11.950;2022-12-16T09:11:23;11.80;;;6.87;;
13014;SDS011;6573;57.696;11.950;2022-12-16T09:14:08;13.40;;;7.40;;
13014;SDS011;6573;57.696;11.950;2022-12-16T09:16:54;11.90;;;7.40;;
13014;SDS011;6573;57.696;11.950;2022-12-16T09:19:40;13.43;;;7.20;;
13014;SDS011;6573;57.696;11.950;2022-12-16T09:22:27;19.23;;;8.60;;
13014;SDS011;6573;57.696;11.950;2022-12-16T09:25:09;13.20;;;8.33;;
13014;SDS011;6573;57.696;11.950;2022-12-16T09:27:55;21.10;;;12.35;;
13014;SDS011;6573;57.696;11.950;2022-12-16T09:30:41;15.60;;;8.97;;
13014;SDS011;6573;57.696;11.950;2022-12-16T09:33:26;14.33;;;8.07;;
13014;SDS011;6573;57.696;11.950;2022-12-16T09:36:12;15.00;;;8.50;;
13014;SDS011;6573;57.696;11.950;2022-12-16T09:39:00;14.55;;;9.57;;
13014;SDS011;6573;57.696;11.950;2022-12-16T09:41:50;12.27;;;9.00;;
13014;SDS011;6573;57.696;11.950;2022-12-16T09:44:48;14.40;;;8.40;;
13014;SDS011;6573;57.696;11.950;2022-12-16T09:47:45;15.07;;;9.07;;
13014;SDS011;6573;57.696;11.950;2022-12-16T09:50:37;18.70;;;9.43;;
13014;SDS011;6573;57.696;11.950;2022-12-16T09:53:26;13.47;;;9.50;;
13014;SDS011;6573;57.696;11.950;2022-12-16T09:56:18;17.10;;;9.50;;
13014;SDS011;6573;57.696;11.950;2022-12-16T09:59:09;15.20;;;10.27;;
13014;SDS011;6573;57.696;11.950;2022-12-16T10:01:57;16.93;;;9.50;;
13014;SDS011;6573;57.696;11.950;2022-12-16T10:04:44;14.27;;;10.50;;
13014;SDS011;6573;57.696;11.950;2022-12-16T10:07:36;19.57;;;9.53;;
13014;SDS011;6573;57.696;11.950;2022-12-16T10:10:30;21.13;;;10.43;;
13014;SDS011;6573;57.696;11.950;2022-12-16T10:13:28;19.50;;;11.23;;
13014;SDS011;6573;57.696;11.950;2022-12-16T10:16:24;16.03;;;10.40;;
13014;SDS011;6573;57.696;11.950;2022-12-16T10:19:21;15.13;;;10.87;;
13014;SDS011;6573;57.696;11.950;2022-12-16T10:22:19;16.33;;;10.80;;
13014;SDS011;6573;57.696;11.950;2022-12-16T10:25:12;15.53;;;10.07;;
13014;SDS011;6573;57.696;11.950;2022-12-16T10:28:04;13.67;;;10.00;;
13014;SDS011;6573;57.696;11.950;2022-12-16T10:31:01;16.70;;;10.93;;
13014;SDS011;6573;57.696;11.950;2022-12-16T10:33:52;14.20;;;9.60;;
13014;SDS011;6573;57.696;11.950;2022-12-16T10:36:39;12.63;;;10.30;;
13014;SDS011;6573;57.696;11.950;2022-12-16T10:39:32;14.77;;;10.53;;
13014;SDS011;6573;57.696;11.950;2022-12-16T10:42:23;15.20;;;9.52;;
13014;SDS011;6573;57.696;11.950;2022-12-16T10:45:14;14.23;;;9.23;;
13014;SDS011;6573;57.696;11.950;2022-12-16T10:48:06;13.73;;;10.23;;
13014;SDS011;6573;57.696;11.950;2022-12-16T10:50:54;13.17;;;9.83;;
13014;SDS011;6573;57.696;11.950;2022-12-16T10:53:43;12.60;;;9.87;;
13014;SDS011;6573;57.696;11.950;2022-12-16T10:56:36;13.07;;;9.00;;
13014;SDS011;6573;57.696;11.950;2022-12-16T10:59:34;12.13;;;8.80;;
13014;SDS011;6573;57.696;11.950;2022-12-16T11:02:22;13.13;;;10.37;;
13014;SDS011;6573;57.696;11.950;2022-12-16T11:05:28;12.47;;;9.83;;
13014;SDS011;6573;57.696;11.950;2022-12-16T11:08:25;13.33;;;10.53;;
13014;SDS011;6573;57.696;11.950;2022-12-16T11:11:17;15.80;;;10.70;;
13014;SDS011;6573;57.696;11.950;2022-12-16T11:14:15;13.80;;;10.80;;
13014;SDS011;6573;57.696;11.950;2022-12-16T11:20:12;13.40;;;8.80;;
13014;SDS011;6573;57.696;11.950;2022-12-16T11:26:17;13.03;;;10.03;;
13014;SDS011;6573;57.696;11.950;2022-12-16T11:29:05;14.03;;;10.90;;
13014;SDS011;6573;57.696;11.950;2022-12-16T11:31:59;15.37;;;10.97;;
13014;SDS011;6573;57.696;11.950;2022-12-16T11:34:58;22.13;;;14.33;;
13014;SDS011;6573;57.696;11.950;2022-12-16T11:37:47;16.83;;;10.80;;
13014;SDS011;6573;57.696;11.950;2022-12-16T11:40:38;15.10;;;11.10;;
13014;SDS011;6573;57.696;11.950;2022-12-16T11:43:24;14.53;;;10.43;;
13014;SDS011;6573;57.696;11.950;2022-12-16T11:46:24;18.83;;;11.53;;
13014;SDS011;6573;57.696;11.950;2022-12-16T11:49:14;16.80;;;11.67;;
13014;SDS011;6573;57.696;11.950;2022-12-16T11:52:05;20.50;;;13.30;;
13014;SDS011;6573;57.696;11.950;2022-12-16T11:55:15;21.77;;;12.87;;
13014;SDS011;6573;57.696;11.950;2022-12-16T11:58:27;15.83;;;12.03;;
13014;SDS011;6573;57.696;11.950;2022-12-16T12:01:22;17.03;;;11.07;;
13014;SDS011;6573;57.696;11.950;2022-12-16T12:04:12;17.07;;;12.40;;
13014;SDS011;6573;57.696;11.950;2022-12-16T12:07:01;16.13;;;11.67;;
13014;SDS011;6573;57.696;11.950;2022-12-16T12:10:16;16.83;;;10.70;;
13014;SDS011;6573;57.696;11.950;2022-12-16T12:13:19;15.37;;;11.07;;
13014;SDS011;6573;57.696;11.950;2022-12-16T12:16:22;13.80;;;10.57;;
13014;SDS011;6573;57.696;11.950;2022-12-16T12:19:13;17.33;;;11.10;;
13014;SDS011;6573;57.696;11.950;2022-12-16T12:22:09;18.90;;;11.47;;
13014;SDS011;6573;57.696;11.950;2022-12-16T12:25:15;17.90;;;11.90;;
13014;SDS011;6573;57.696;11.950;2022-12-16T12:28:09;17.33;;;11.63;;
13014;SDS011;6573;57.696;11.950;2022-12-16T12:31:05;18.63;;;10.87;;
13014;SDS011;6573;57.696;11.950;2022-12-16T12:34:02;16.27;;;11.10;;
13014;SDS011;6573;57.696;11.950;2022-12-16T12:36:58;18.13;;;11.27;;
13014;SDS011;6573;57.696;11.950;2022-12-16T12:39:52;16.50;;;11.87;;
13014;SDS011;6573;57.696;11.950;2022-12-16T12:42:46;22.37;;;12.07;;
13014;SDS011;6573;57.696;11.950;2022-12-16T12:45:44;21.00;;;12.57;;
13014;SDS011;6573;57.696;11.950;2022-12-16T12:48:37;25.57;;;13.50;;
13014;SDS011;6573;57.696;11.950;2022-12-16T12:51:32;19.03;;;12.57;;
13014;SDS011;6573;57.696;11.950;2022-12-16T12:54:29;42.63;;;13.70;;
13014;SDS011;6573;57.696;11.950;2022-12-16T12:57:21;23.83;;;13.90;;
13014;SDS011;6573;57.696;11.950;2022-12-16T13:00:23;23.17;;;12.53;;
13014;SDS011;6573;57.696;11.950;2022-12-16T13:03:12;26.80;;;14.00;;
13014;SDS011;6573;57.696;11.950;2022-12-16T13:06:01;27.80;;;15.20;;
13014;SDS011;6573;57.696;11.950;2022-12-16T13:08:55;25.50;;;14.80;;
13014;SDS011;6573;57.696;11.950;2022-12-16T13:15:10;26.50;;;14.67;;
13014;SDS011;6573;57.696;11.950;2022-12-16T13:18:18;27.13;;;16.13;;
13014;SDS011;6573;57.696;11.950;2022-12-16T13:24:41;24.80;;;14.73;;
13014;SDS011;6573;57.696;11.950;2022-12-16T13:27:44;25.30;;;15.67;;
13014;SDS011;6573;57.696;11.950;2022-12-16T13:30:34;23.90;;;15.60;;
13014;SDS011;6573;57.696;11.950;2022-12-16T13:33:23;26.53;;;16.03;;
13014;SDS011;6573;57.696;11.950;2022-12-16T13:36:14;26.27;;;16.53;;
13014;SDS011;6573;57.696;11.950;2022-12-16T13:39:19;24.07;;;15.37;;
13014;SDS011;6573;57.696;11.950;2022-12-16T13:45:32;23.10;;;16.47;;
13014;SDS011;6573;57.696;11.950;2022-12-16T13:48:31;23.13;;;15.90;;
13014;SDS011;6573;57.696;11.950;2022-12-16T13:58:06;24.13;;;16.87;;
13014;SDS011;6573;57.696;11.950;2022-12-16T14:01:03;22.97;;;16.60;;
13014;SDS011;6573;57.696;11.950;2022-12-16T14:03:54;24.70;;;17.40;;
13014;SDS011;6573;57.696;11.950;2022-12-16T14:06:43;24.27;;;17.20;;
13014;SDS011;6573;57.696;11.950;2022-12-16T14:09:31;26.83;;;18.20;;
13014;SDS011;6573;57.696;11.950;2022-12-16T14:15:30;30.63;;;17.47;;
13014;SDS011;6573;57.696;11.950;2022-12-16T14:18:27;30.67;;;19.07;;
13014;SDS011;6573;57.696;11.950;2022-12-16T14:21:23;27.17;;;17.30;;
13014;SDS011;6573;57.696;11.950;2022-12-16T14:24:17;28.67;;;19.73;;
13014;SDS011;6573;57.696;11.950;2022-12-16T14:27:17;29.57;;;19.90;;
13014;SDS011;6573;57.696;11.950;2022-12-16T14:30:13;28.30;;;19.77;;
13014;SDS011;6573;57.696;11.950;2022-12-16T14:33:22;35.00;;;22.80;;
13014;SDS011;6573;57.696;11.950;2022-12-16T14:36:17;30.67;;;21.33;;
13014;SDS011;6573;57.696;11.950;2022-12-16T14:39:08;33.00;;;22.53;;
13014;SDS011;6573;57.696;11.950;2022-12-16T14:41:55;35.73;;;22.70;;
13014;SDS011;6573;57.696;11.950;2022-12-16T14:44:43;34.37;;;22.67;;
13014;SDS011;6573;57.696;11.950;2022-12-16T14:47:30;31.57;;;20.20;;
13014;SDS011;6573;57.696;11.950;2022-12-16T14:50:21;30.27;;;20.27;;
13014;SDS011;6573;57.696;11.950;2022-12-16T14:53:15;27.87;;;19.23;;
13014;SDS011;6573;57.696;11.950;2022-12-16T14:56:10;31.30;;;20.30;;
13014;SDS011;6573;57.696;11.950;2022-12-16T14:59:07;25.77;;;18.90;;
13014;SDS011;6573;57.696;11.950;2022-12-16T15:01:54;30.67;;;20.30;;
13014;SDS011;6573;57.696;11.950;2022-12-16T15:04:43;27.67;;;18.90;;
13014;SDS011;6573;57.696;11.950;2022-12-16T15:07:32;27.73;;;19.10;;
13014;SDS011;6573;57.696;11.950;2022-12-16T15:10:21;30.87;;;19.07;;
13014;SDS011;6573;57.696;11.950;2022-12-16T15:13:12;28.30;;;18.57;;
13014;SDS011;6573;57.696;11.950;2022-12-16T15:16:02;26.33;;;18.87;;
13014;SDS011;6573;57.696;11.950;2022-12-16T15:18:53;27.17;;;18.70;;
13014;SDS011;6573;57.696;11.950;2022-12-16T15:21:43;38.07;;;18.63;;
13014;SDS011;6573;57.696;11.950;2022-12-16T15:24:31;28.83;;;18.37;;
13014;SDS011;6573;57.696;11.950;2022-12-16T15:27:32;32.57;;;17.97;;
13014;SDS011;6573;57.696;11.950;2022-12-16T15:30:35;30.13;;;19.07;;
13014;SDS011;6573;57.696;11.950;2022-12-16T15:33:23;35.33;;;19.73;;
13014;SDS011;6573;57.696;11.950;2022-12-16T15:36:17;31.55;;;19.95;;
13014;SDS011;6573;57.696;11.950;2022-12-16T15:39:10;35.70;;;18.20;;
13014;SDS011;6573;57.696;11.950;2022-12-16T15:42:02;33.13;;;19.90;;
13014;SDS011;6573;57.696;11.950;2022-12-16T15:44:49;31.13;;;19.40;;
13014;SDS011;6573;57.696;11.950;2022-12-16T15:47:36;29.27;;;18.13;;
13014;SDS011;6573;57.696;11.950;2022-12-16T15:50:23;28.00;;;16.30;;
13014;SDS011;6573;57.696;11.950;2022-12-16T15:53:28;29.40;;;18.20;;
13014;SDS011;6573;57.696;11.950;2022-12-16T15:56:18;29.03;;;18.27;;
13014;SDS011;6573;57.696;11.950;2022-12-16T16:02:14;25.57;;;17.90;;
13014;SDS011;6573;57.696;11.950;2022-12-16T16:05:08;25.10;;;17.30;;
13014;SDS011;6573;57.696;11.950;2022-12-16T16:07:55;26.07;;;17.27;;
13014;SDS011;6573;57.696;11.950;2022-12-16T16:10:41;31.87;;;19.80;;
13014;SDS011;6573;57.696;11.950;2022-12-16T16:13:28;25.43;;;17.17;;
13014;SDS011;6573;57.696;11.950;2022-12-16T16:16:16;26.20;;;18.33;;
13014;SDS011;6573;57.696;11.950;2022-12-16T16:19:02;32.40;;;20.03;;
13014;SDS011;6573;57.696;11.950;2022-12-16T16:21:52;26.93;;;18.53;;
13014;SDS011;6573;57.696;11.950;2022-12-16T16:24:38;23.58;;;15.43;;
13014;SDS011;6573;57.696;11.950;2022-12-16T16:27:24;27.33;;;15.93;;
13014;SDS011;6573;57.696;11.950;2022-12-16T16:30:12;24.73;;;16.40;;
13014;SDS011;6573;57.696;11.950;2022-12-16T16:32:59;26.47;;;17.17;;
13014;SDS011;6573;57.696;11.950;2022-12-16T16:35:45;31.90;;;15.90;;
13014;SDS011;6573;57.696;11.950;2022-12-16T16:38:30;22.27;;;15.80;;
13014;SDS011;6573;57.696;11.950;2022-12-16T16:41:18;26.57;;;18.47;;
13014;SDS011;6573;57.696;11.950;2022-12-16T16:44:04;24.13;;;16.87;;
13014;SDS011;6573;57.696;11.950;2022-12-16T16:46:49;24.37;;;16.40;;
13014;SDS011;6573;57.696;11.950;2022-12-16T16:49:38;24.63;;;16.77;;